createdAt,value
2019-03-06T00:00:33.782Z,61.40
2019-03-06T00:03:02.637Z,63.10
2019-03-06T00:05:31.275Z,63.80
2019-03-06T00:08:01.767Z,64.40
2019-03-06T00:10:31.150Z,64.00
2019-03-06T00:13:00.051Z,64.10
2019-03-06T00:15:28.708Z,63.80
2019-03-06T00:17:59.908Z,64.80
2019-03-06T00:20:28.525Z,64.10
2019-03-06T00:22:57.202Z,64.20
2019-03-06T00:25:25.873Z,63.70
2019-03-06T00:27:54.705Z,63.80
2019-03-06T00:30:23.293Z,63.30
2019-03-06T00:32:51.851Z,63.20
2019-03-06T00:35:45.956Z,63.50
2019-03-06T00:38:15.469Z,64.30
2019-03-06T00:40:56.891Z,65.40
2019-03-06T00:43:24.819Z,66.60
2019-03-06T00:45:56.220Z,67.80
2019-03-06T00:48:26.724Z,68.10
2019-03-06T00:50:55.790Z,68.90
2019-03-06T00:53:24.699Z,69.80
2019-03-06T00:55:53.370Z,71.10
2019-03-06T00:58:52.368Z,72.60
2019-03-06T01:01:21.212Z,73.40
2019-03-06T01:04:07.300Z,74.10
2019-03-06T01:09:40.886Z,75.50
2019-03-06T01:12:10.481Z,76.20
2019-03-06T01:14:48.193Z,76.50
2019-03-06T01:18:07.864Z,77.50
2019-03-06T01:20:36.745Z,78.30
2019-03-06T01:23:05.510Z,78.50
2019-03-06T01:25:35.924Z,78.90
2019-03-06T01:28:04.471Z,79.50
2019-03-06T01:30:33.165Z,77.80
2019-03-06T01:33:18.118Z,77.50
2019-03-06T01:35:57.001Z,77.60
2019-03-06T01:38:29.775Z,76.50
2019-03-06T01:41:05.883Z,77.20
2019-03-06T01:43:44.872Z,76.70
2019-03-06T01:46:13.394Z,75.80
2019-03-06T01:48:41.981Z,76.30
2019-03-06T01:51:11.697Z,75.50
2019-03-06T01:53:40.333Z,75.20
2019-03-06T01:56:14.007Z,76.30
2019-03-06T01:58:42.679Z,76.70
2019-03-06T02:01:11.259Z,76.80
2019-03-06T02:03:39.848Z,77.40
2019-03-06T02:06:08.725Z,77.60
2019-03-06T02:08:37.259Z,77.20
2019-03-06T02:11:07.972Z,77.40
2019-03-06T02:13:36.524Z,77.00
2019-03-06T02:16:05.173Z,76.40
2019-03-06T02:18:33.681Z,76.00
2019-03-06T02:21:02.186Z,75.80
2019-03-06T02:23:30.764Z,75.90
2019-03-06T02:25:59.356Z,76.40
2019-03-06T02:28:28.035Z,76.30
2019-03-06T02:31:04.148Z,75.70
2019-03-06T02:33:37.234Z,76.20
2019-03-06T02:36:05.868Z,76.40
2019-03-06T02:38:37.404Z,75.90
2019-03-06T02:41:06.165Z,75.60
2019-03-06T02:43:36.852Z,75.60
2019-03-06T02:46:05.734Z,75.20
2019-03-06T02:48:34.526Z,75.60
2019-03-06T02:51:03.033Z,75.90
2019-03-06T02:53:31.518Z,76.10
2019-03-06T02:56:00.211Z,76.00
2019-03-06T02:58:33.312Z,75.80
2019-03-06T03:01:18.397Z,76.10
2019-03-06T03:04:06.562Z,75.60
2019-03-06T03:06:36.705Z,76.80
2019-03-06T03:09:09.721Z,76.60
2019-03-06T03:11:38.293Z,76.20
2019-03-06T03:14:07.076Z,75.70
2019-03-06T03:16:35.696Z,75.60
2019-03-06T03:19:05.890Z,75.60
2019-03-06T03:21:34.710Z,75.70
2019-03-06T03:24:03.217Z,75.40
2019-03-06T03:26:31.899Z,75.80
2019-03-06T03:29:00.353Z,75.90
2019-03-06T03:31:28.999Z,76.00
2019-03-06T03:33:57.585Z,75.40
2019-03-06T03:36:26.151Z,74.40
2019-03-06T03:38:54.648Z,73.80
2019-03-06T03:41:23.568Z,73.30
2019-03-06T03:43:52.049Z,73.70
2019-03-06T03:46:20.681Z,74.70
2019-03-06T03:48:49.363Z,75.20
2019-03-06T03:51:20.448Z,75.80
2019-03-06T03:53:49.326Z,76.50
2019-03-06T03:56:19.429Z,77.60
2019-03-06T03:58:48.064Z,77.10
2019-03-06T04:01:16.548Z,77.00
2019-03-06T04:03:45.104Z,77.30
2019-03-06T04:06:13.597Z,77.60
2019-03-06T04:08:42.089Z,78.00
2019-03-06T04:11:10.575Z,78.20
2019-03-06T04:13:39.069Z,78.40
2019-03-06T04:16:07.560Z,79.50
2019-03-06T04:18:36.153Z,80.00
2019-03-06T04:21:04.924Z,80.10
2019-03-06T04:23:33.702Z,80.90
2019-03-06T04:26:02.239Z,81.20
2019-03-06T04:28:30.721Z,81.20
2019-03-06T04:30:59.202Z,81.00
2019-03-06T04:33:28.074Z,80.60
2019-03-06T04:35:56.562Z,81.00
2019-03-06T04:38:25.175Z,80.60
2019-03-06T04:40:54.123Z,80.60
2019-03-06T04:43:22.878Z,83.10
2019-03-06T04:45:51.438Z,83.80
2019-03-06T04:48:19.936Z,84.10
2019-03-06T04:50:48.580Z,85.70
2019-03-06T04:53:17.078Z,86.60
2019-03-06T04:55:51.138Z,88.80
2019-03-06T04:58:26.278Z,89.60
2019-03-06T05:00:55.022Z,91.00
2019-03-06T05:03:23.546Z,91.30
2019-03-06T05:05:53.999Z,91.40
2019-03-06T05:08:24.668Z,91.60
2019-03-06T05:10:57.062Z,92.20
2019-03-06T05:13:27.225Z,92.10
2019-03-06T05:18:49.247Z,92.60
2019-03-06T05:21:27.316Z,92.80
2019-03-06T05:23:55.635Z,93.00
2019-03-06T05:26:25.756Z,93.00
2019-03-06T05:28:54.474Z,92.90
2019-03-06T05:31:38.074Z,93.10
2019-03-06T05:34:06.884Z,93.10
2019-03-06T05:37:06.210Z,93.50
2019-03-06T05:39:36.754Z,94.00
2019-03-06T05:42:05.281Z,94.20
2019-03-06T05:44:33.893Z,94.40
2019-03-06T05:47:05.024Z,94.20
2019-03-06T05:49:34.018Z,94.10
2019-03-06T05:52:08.276Z,93.90
2019-03-06T05:54:39.584Z,94.30
2019-03-06T05:57:09.843Z,94.20
2019-03-06T05:59:38.331Z,93.90
2019-03-06T06:02:06.999Z,93.90
2019-03-06T06:04:35.599Z,94.10
2019-03-06T06:07:05.099Z,94.10
2019-03-06T06:09:39.437Z,94.10
2019-03-06T06:12:07.991Z,94.10
2019-03-06T06:14:36.490Z,94.00
2019-03-06T06:17:05.016Z,93.90
2019-03-06T06:19:33.799Z,93.80
2019-03-06T06:22:03.921Z,93.90
2019-03-06T06:24:35.206Z,93.60
2019-03-06T06:27:03.691Z,93.50
2019-03-06T06:29:32.337Z,93.50
2019-03-06T06:32:01.190Z,93.60
2019-03-06T06:34:29.846Z,93.60
2019-03-06T06:36:58.435Z,93.50
2019-03-06T06:39:27.213Z,93.50
2019-03-06T06:41:55.745Z,93.60
2019-03-06T06:44:24.607Z,93.90
2019-03-06T06:46:53.110Z,94.00
2019-03-06T06:49:26.043Z,94.10
2019-03-06T06:52:04.386Z,94.10
2019-03-06T06:54:36.736Z,93.50
2019-03-06T06:57:23.767Z,93.80
2019-03-06T07:00:28.187Z,92.90
2019-03-06T07:03:42.159Z,92.50
2019-03-06T07:06:20.955Z,92.70
2019-03-06T07:08:51.206Z,92.80
2019-03-06T07:11:31.692Z,92.80
2019-03-06T07:14:04.650Z,92.80
2019-03-06T07:16:34.785Z,92.80
2019-03-06T07:19:10.785Z,92.80
2019-03-06T07:21:52.784Z,92.70
2019-03-06T07:24:28.848Z,92.60
2019-03-06T07:27:19.498Z,92.40
2019-03-06T07:29:49.640Z,92.20
2019-03-06T07:32:28.708Z,91.80
2019-03-06T07:35:45.537Z,91.70
2019-03-06T07:38:14.097Z,92.00
2019-03-06T07:40:57.527Z,92.60
2019-03-06T07:43:27.728Z,92.70
2019-03-06T07:45:57.921Z,92.70
2019-03-06T07:48:28.358Z,92.20
2019-03-06T07:51:01.188Z,91.90
2019-03-06T07:53:49.227Z,91.50
2019-03-06T07:56:19.350Z,91.30
2019-03-06T07:58:52.034Z,91.60
2019-03-06T08:01:21.268Z,92.00
2019-03-06T08:03:52.933Z,91.90
2019-03-06T08:06:21.527Z,91.70
2019-03-06T08:08:50.022Z,91.40
2019-03-06T08:11:20.275Z,91.50
2019-03-06T08:13:50.782Z,91.20
2019-03-06T08:16:21.233Z,91.10
2019-03-06T08:19:07.717Z,91.20
2019-03-06T08:21:40.706Z,91.70
2019-03-06T08:24:10.812Z,91.30
2019-03-06T08:26:39.502Z,90.70
2019-03-06T08:29:08.143Z,90.50
2019-03-06T08:31:38.308Z,90.10
2019-03-06T08:34:06.908Z,89.30
2019-03-06T08:36:35.422Z,88.90
2019-03-06T08:39:05.125Z,89.10
2019-03-06T08:41:33.606Z,88.60
2019-03-06T08:44:02.099Z,88.20
2019-03-06T08:46:48.296Z,89.40
2019-03-06T08:49:34.301Z,88.50
2019-03-06T08:52:04.448Z,87.80
2019-03-06T08:54:34.579Z,87.20
2019-03-06T08:57:19.747Z,86.50
2019-03-06T09:00:06.154Z,85.60
2019-03-06T09:02:48.183Z,84.10
2019-03-06T09:05:18.392Z,82.30
2019-03-06T09:07:51.471Z,80.50
2019-03-06T09:10:37.654Z,78.70
2019-03-06T09:13:19.669Z,77.60
2019-03-06T09:16:05.883Z,77.40
2019-03-06T09:18:41.789Z,77.40
2019-03-06T09:21:11.923Z,77.10
2019-03-06T09:23:44.759Z,75.10
2019-03-06T09:26:20.775Z,72.90
2019-03-06T09:29:02.643Z,71.20
2019-03-06T09:31:32.757Z,69.80
2019-03-06T09:34:08.776Z,68.90
2019-03-06T09:36:54.868Z,68.30
2019-03-06T09:39:27.839Z,68.20
2019-03-06T09:42:13.999Z,67.20
2019-03-06T09:44:49.865Z,65.80
2019-03-06T09:47:22.658Z,66.90
2019-03-06T09:49:52.811Z,65.70
2019-03-06T09:52:28.577Z,65.20
2019-03-06T09:55:04.412Z,65.30
2019-03-06T09:57:34.514Z,63.50
2019-03-06T10:00:20.635Z,60.30
2019-03-06T10:02:53.446Z,58.90
2019-03-06T10:05:23.583Z,58.00
2019-03-06T10:08:09.855Z,56.90
2019-03-06T10:10:50.507Z,57.80
2019-03-06T10:13:23.391Z,58.90
2019-03-06T10:15:53.539Z,59.00
2019-03-06T10:18:26.943Z,59.40
2019-03-06T10:20:55.480Z,58.80
2019-03-06T10:23:23.960Z,58.60
2019-03-06T10:25:52.474Z,58.50
2019-03-06T10:28:27.495Z,57.60
2019-03-06T10:30:51.092Z,57.60
2019-03-06T10:33:19.598Z,57.80
2019-03-06T10:35:48.099Z,56.40
2019-03-06T10:38:17.170Z,55.40
2019-03-06T10:40:45.772Z,55.00
2019-03-06T10:43:14.294Z,54.30
2019-03-06T10:45:42.768Z,52.50
2019-03-06T10:48:11.277Z,51.90
2019-03-06T10:50:39.744Z,51.20
2019-03-06T10:53:08.354Z,51.60
2019-03-06T10:55:37.041Z,50.60
2019-03-06T10:58:05.592Z,50.00
2019-03-06T11:00:38.248Z,49.70
2019-03-06T11:03:06.799Z,48.70
2019-03-06T11:05:36.667Z,47.70
2019-03-06T11:08:05.287Z,46.50
2019-03-06T11:10:34.395Z,44.90
2019-03-06T11:13:04.946Z,44.30
2019-03-06T11:15:33.607Z,44.90
2019-03-06T11:18:02.105Z,43.90
2019-03-06T11:20:35.378Z,44.70
2019-03-06T11:23:08.919Z,44.00
2019-03-06T11:25:38.423Z,43.70
2019-03-06T11:28:09.059Z,41.80
2019-03-06T11:30:43.646Z,42.00
2019-03-06T11:33:12.300Z,43.00
2019-03-06T11:35:40.880Z,43.20
2019-03-06T11:38:09.586Z,41.00
2019-03-06T11:40:38.159Z,40.80
2019-03-06T11:43:08.227Z,41.60
2019-03-06T11:45:38.245Z,42.10
2019-03-06T11:48:06.813Z,43.60
2019-03-06T11:50:40.811Z,40.90
2019-03-06T11:53:05.875Z,40.30
2019-03-06T11:55:34.373Z,40.80
2019-03-06T11:58:02.988Z,39.70
2019-03-06T12:00:41.837Z,39.80
2019-03-06T12:03:10.555Z,39.80
2019-03-06T12:05:39.127Z,40.50
2019-03-06T12:08:10.045Z,39.90
2019-03-06T12:10:38.650Z,39.10
2019-03-06T12:13:12.002Z,39.50
2019-03-06T12:15:41.031Z,39.10
2019-03-06T12:18:09.531Z,38.80
2019-03-06T12:20:40.039Z,37.40
2019-03-06T12:23:08.248Z,38.80
2019-03-06T12:25:36.724Z,39.40
2019-03-06T12:28:05.273Z,38.80
2019-03-06T12:30:33.802Z,37.60
2019-03-06T12:33:02.309Z,38.00
2019-03-06T12:35:30.798Z,37.90
2019-03-06T12:37:59.372Z,37.80
2019-03-06T12:40:31.769Z,39.50
2019-03-06T12:43:00.242Z,38.10
2019-03-06T12:45:28.766Z,37.50
2019-03-06T12:48:03.423Z,38.10
2019-03-06T12:50:37.515Z,36.80
2019-03-06T12:53:06.079Z,37.40
2019-03-06T12:55:34.614Z,37.90
2019-03-06T12:58:03.099Z,36.90
2019-03-06T13:00:33.222Z,35.80
2019-03-06T13:03:01.718Z,34.40
2019-03-06T13:05:30.190Z,34.80
2019-03-06T13:07:58.703Z,35.10
2019-03-06T13:10:27.175Z,36.10
2019-03-06T13:12:55.673Z,37.20
2019-03-06T13:15:24.900Z,36.90
2019-03-06T13:17:53.837Z,36.50
2019-03-06T13:20:22.300Z,37.10
2019-03-06T13:22:51.696Z,38.20
2019-03-06T13:25:23.565Z,37.70
2019-03-06T13:27:55.366Z,36.00
2019-03-06T13:30:23.845Z,37.50
2019-03-06T13:32:53.954Z,37.30
2019-03-06T13:35:22.463Z,37.00
2019-03-06T13:37:50.946Z,35.10
2019-03-06T13:40:19.448Z,35.10
2019-03-06T13:42:52.558Z,37.50
2019-03-06T13:45:21.351Z,37.60
2019-03-06T13:47:51.031Z,37.20
2019-03-06T13:50:19.724Z,38.10
2019-03-06T13:52:51.354Z,38.60
2019-03-06T13:55:19.953Z,39.50
2019-03-06T13:57:48.514Z,39.50
2019-03-06T14:00:18.824Z,38.20
2019-03-06T14:02:48.337Z,37.50
2019-03-06T14:05:17.003Z,34.80
2019-03-06T14:07:55.652Z,34.90
2019-03-06T14:10:23.823Z,34.80
2019-03-06T14:12:52.562Z,36.70
2019-03-06T14:15:24.221Z,36.60
2019-03-06T14:17:52.760Z,36.00
2019-03-06T14:20:22.619Z,36.60
2019-03-06T14:22:51.321Z,37.50
2019-03-06T14:25:20.218Z,38.30
2019-03-06T14:27:48.951Z,37.30
2019-03-06T14:30:22.808Z,38.00
2019-03-06T14:32:51.553Z,38.20
2019-03-06T14:35:20.105Z,38.80
2019-03-06T14:37:48.567Z,38.30
2019-03-06T14:40:20.336Z,38.10
2019-03-06T14:42:48.823Z,37.50
2019-03-06T14:45:17.310Z,37.20
2019-03-06T14:47:45.799Z,37.50
2019-03-06T14:50:14.276Z,36.60
2019-03-06T14:52:42.768Z,36.70
2019-03-06T14:55:14.799Z,36.10
2019-03-06T14:57:43.492Z,35.60
2019-03-06T15:00:18.140Z,36.70
2019-03-06T15:02:46.898Z,37.90
2019-03-06T15:05:16.006Z,38.00
2019-03-06T15:07:44.531Z,39.70
2019-03-06T15:10:16.961Z,39.50
2019-03-06T15:12:45.488Z,39.60
2019-03-06T15:15:19.154Z,39.80
2019-03-06T15:17:47.809Z,40.00
2019-03-06T15:20:21.495Z,39.70
2019-03-06T15:22:56.825Z,40.50
2019-03-06T15:25:27.961Z,40.80
2019-03-06T15:27:59.022Z,41.30
2019-03-06T15:30:27.553Z,40.90
2019-03-06T15:32:56.030Z,41.00
2019-03-06T15:35:24.588Z,42.10
2019-03-06T15:37:53.116Z,41.90
2019-03-06T15:40:28.373Z,42.10
2019-03-06T15:42:59.050Z,42.10
2019-03-06T15:45:33.032Z,43.10
2019-03-06T15:48:01.615Z,43.50
2019-03-06T15:50:30.229Z,43.70
2019-03-06T15:52:58.724Z,43.40
2019-03-06T15:55:28.164Z,43.60
2019-03-06T15:57:56.686Z,43.80
2019-03-06T16:00:35.449Z,43.30
2019-03-06T16:03:05.594Z,43.90
2019-03-06T16:05:34.323Z,44.50
2019-03-06T16:08:02.817Z,44.10
2019-03-06T16:10:31.314Z,43.90
2019-03-06T16:12:59.821Z,43.50
2019-03-06T16:15:29.028Z,43.60
2019-03-06T16:17:59.404Z,44.40
2019-03-06T16:20:28.030Z,44.60
2019-03-06T16:22:56.546Z,44.70
2019-03-06T16:25:25.098Z,45.10
2019-03-06T16:27:53.897Z,45.50
2019-03-06T16:30:23.672Z,45.30
2019-03-06T16:32:52.245Z,45.50
2019-03-06T16:35:20.751Z,45.70
2019-03-06T16:37:49.267Z,47.40
2019-03-06T16:40:20.047Z,47.60
2019-03-06T16:42:48.909Z,47.30
2019-03-06T16:45:24.187Z,47.30
2019-03-06T16:47:55.872Z,48.70
2019-03-06T16:50:24.586Z,48.70
2019-03-06T16:53:10.646Z,48.00
2019-03-06T16:55:57.334Z,48.00
2019-03-06T16:58:25.902Z,49.40
2019-03-06T17:00:54.548Z,48.90
2019-03-06T17:03:23.319Z,49.40
2019-03-06T17:05:52.030Z,50.10
2019-03-06T17:08:20.563Z,51.00
2019-03-06T17:10:49.267Z,52.00
2019-03-06T17:13:17.820Z,52.70
2019-03-06T17:15:46.339Z,52.80
2019-03-06T17:18:15.113Z,53.40
2019-03-06T17:20:43.700Z,53.80
2019-03-06T17:23:12.172Z,53.90
2019-03-06T17:25:40.664Z,54.50
2019-03-06T17:28:09.141Z,54.40
2019-03-06T17:30:37.964Z,54.90
2019-03-06T17:33:09.624Z,54.70
2019-03-06T17:35:38.434Z,54.50
2019-03-06T17:38:12.018Z,54.30
2019-03-06T17:40:40.579Z,54.50
2019-03-06T17:43:09.142Z,54.90
2019-03-06T17:45:37.625Z,54.60
2019-03-06T17:48:06.653Z,55.20
2019-03-06T17:50:35.202Z,55.20
2019-03-06T17:53:03.764Z,54.90
2019-03-06T17:55:32.254Z,55.40
2019-03-06T17:58:00.840Z,55.70
2019-03-06T18:00:47.252Z,55.90
2019-03-06T18:03:20.074Z,56.20
2019-03-06T18:05:48.627Z,56.40
2019-03-06T18:08:17.157Z,56.80
2019-03-06T18:10:45.770Z,56.50
2019-03-06T18:13:14.405Z,56.10
2019-03-06T18:15:44.403Z,55.60
2019-03-06T18:18:13.069Z,55.80
2019-03-06T18:20:41.602Z,55.80
2019-03-06T18:23:10.156Z,56.10
2019-03-06T18:25:39.097Z,56.50
2019-03-06T18:28:07.862Z,56.20
2019-03-06T18:30:36.344Z,56.20
2019-03-06T18:33:04.830Z,56.10
2019-03-06T18:35:36.339Z,56.30
2019-03-06T18:38:04.977Z,56.20
2019-03-06T18:40:33.471Z,57.00
2019-03-06T18:43:02.165Z,57.30
2019-03-06T18:45:30.810Z,56.50
2019-03-06T18:47:59.360Z,57.40
2019-03-06T18:50:27.829Z,56.90
2019-03-06T18:52:56.651Z,57.10
2019-03-06T18:55:25.209Z,57.80
2019-03-06T18:57:53.720Z,57.60
2019-03-06T19:00:26.910Z,57.40
2019-03-06T19:02:55.417Z,57.70
2019-03-06T19:05:23.956Z,58.00
2019-03-06T19:07:52.523Z,57.70
2019-03-06T19:10:23.106Z,57.70
2019-03-06T19:12:51.925Z,57.60
2019-03-06T19:15:23.675Z,57.40
2019-03-06T19:17:52.200Z,57.70
2019-03-06T19:20:21.241Z,57.70
2019-03-06T19:22:50.304Z,57.70
2019-03-06T19:25:18.945Z,57.60
2019-03-06T19:27:47.731Z,57.60
2019-03-06T19:30:20.861Z,58.10
2019-03-06T19:32:49.335Z,57.80
2019-03-06T19:35:18.275Z,57.70
2019-03-06T19:37:46.794Z,57.90
2019-03-06T19:40:16.634Z,58.10
2019-03-06T19:42:45.321Z,58.70
2019-03-06T19:45:21.730Z,59.10
2019-03-06T19:47:50.787Z,59.80
2019-03-06T19:50:25.589Z,59.70
2019-03-06T19:52:54.745Z,59.60
2019-03-06T19:55:23.609Z,59.40
2019-03-06T19:57:58.313Z,60.10
2019-03-06T20:00:29.464Z,61.80
2019-03-06T20:02:59.903Z,62.00
2019-03-06T20:05:39.529Z,63.50
2019-03-06T20:08:10.625Z,64.60
2019-03-06T20:10:41.940Z,65.50
2019-03-06T20:13:11.060Z,66.40
2019-03-06T20:15:40.363Z,66.70
2019-03-06T20:18:08.931Z,66.90
2019-03-06T20:20:37.441Z,67.00
2019-03-06T20:23:05.919Z,67.10
2019-03-06T20:25:34.427Z,67.10
2019-03-06T20:28:03.064Z,67.00
2019-03-06T20:30:31.690Z,66.50
2019-03-06T20:33:00.260Z,66.20
2019-03-06T20:35:28.745Z,65.90
2019-03-06T20:37:57.632Z,66.10
2019-03-06T20:40:26.108Z,66.00
2019-03-06T20:42:54.710Z,66.10
2019-03-06T20:45:23.262Z,66.80
2019-03-06T20:47:51.769Z,67.20
2019-03-06T20:50:20.795Z,67.10
2019-03-06T20:52:50.379Z,67.00
2019-03-06T20:55:20.904Z,67.20
2019-03-06T20:57:49.489Z,66.90
2019-03-06T21:00:26.004Z,66.50
2019-03-06T21:02:54.699Z,66.60
2019-03-06T21:05:23.372Z,66.70
2019-03-06T21:07:52.052Z,66.80
2019-03-06T21:10:21.100Z,66.80
2019-03-06T21:12:49.754Z,67.10
2019-03-06T21:15:19.455Z,66.90
2019-03-06T21:17:47.923Z,66.90
2019-03-06T21:20:23.138Z,66.70
2019-03-06T21:22:51.619Z,67.10
2019-03-06T21:25:20.966Z,67.20
2019-03-06T21:27:49.749Z,67.60
2019-03-06T21:30:26.699Z,68.20
2019-03-06T21:32:55.246Z,68.20
2019-03-06T21:35:23.747Z,68.30
2019-03-06T21:37:52.372Z,68.20
2019-03-06T21:40:20.912Z,68.00
2019-03-06T21:42:49.800Z,67.60
2019-03-06T21:45:18.298Z,67.30
2019-03-06T21:47:46.784Z,67.20
2019-03-06T21:50:16.297Z,67.20
2019-03-06T21:52:44.893Z,66.80
2019-03-06T21:55:16.563Z,66.90
2019-03-06T21:57:45.296Z,67.00
2019-03-06T22:00:21.916Z,67.00
2019-03-06T22:02:50.565Z,67.20
2019-03-06T22:05:19.067Z,67.70
2019-03-06T22:07:47.536Z,67.80
2019-03-06T22:10:16.585Z,67.70
2019-03-06T22:12:45.445Z,68.20
2019-03-06T22:15:19.257Z,67.70
2019-03-06T22:17:47.722Z,67.80
2019-03-06T22:20:16.866Z,67.80
2019-03-06T22:22:45.505Z,66.70
2019-03-06T22:25:16.352Z,65.90
2019-03-06T22:27:44.843Z,65.10
2019-03-06T22:30:18.409Z,65.00
2019-03-06T22:32:47.003Z,65.20
2019-03-06T22:35:15.482Z,65.20
2019-03-06T22:37:43.977Z,66.00
2019-03-06T22:40:14.970Z,66.30
2019-03-06T22:42:43.511Z,66.40
2019-03-06T22:45:14.225Z,66.30
2019-03-06T22:47:42.807Z,66.80
2019-03-06T22:50:15.251Z,67.00
2019-03-06T22:52:43.738Z,67.50
2019-03-06T22:55:16.547Z,67.40
2019-03-06T22:57:45.003Z,65.80
2019-03-06T23:00:32.689Z,65.80
2019-03-06T23:03:01.156Z,66.10
2019-03-06T23:05:31.474Z,67.40
2019-03-06T23:08:00.002Z,67.80
2019-03-06T23:10:28.713Z,66.90
2019-03-06T23:12:58.614Z,66.90
2019-03-06T23:15:27.333Z,66.30
2019-03-06T23:17:57.468Z,65.50
2019-03-06T23:20:25.994Z,65.30
2019-03-06T23:22:54.502Z,65.10
2019-03-06T23:25:22.981Z,66.70
2019-03-06T23:27:51.473Z,66.10
2019-03-06T23:30:19.943Z,66.20
2019-03-06T23:32:48.757Z,66.20
2019-03-06T23:35:17.237Z,66.70
2019-03-06T23:37:45.777Z,66.70
2019-03-06T23:40:14.259Z,66.60
2019-03-06T23:42:42.755Z,66.80
2019-03-06T23:45:12.379Z,66.80
2019-03-06T23:47:41.083Z,66.60
2019-03-06T23:50:10.918Z,66.50
2019-03-06T23:52:56.988Z,67.00
2019-03-06T23:55:26.326Z,66.10
2019-03-06T23:57:55.103Z,65.90
